createdAt,value
2022-09-23T00:00:05.376Z,100.00
2022-09-23T00:02:07.847Z,100.00
2022-09-23T00:04:10.021Z,100.00
2022-09-23T00:06:18.231Z,100.00
2022-09-23T00:08:20.511Z,100.00
2022-09-23T00:10:33.805Z,100.00
2022-09-23T00:12:36.520Z,100.00
2022-09-23T00:14:39.424Z,100.00
2022-09-23T00:16:41.778Z,100.00
2022-09-23T00:18:44.074Z,100.00
2022-09-23T00:20:56.099Z,100.00
2022-09-23T00:23:01.552Z,100.00
2022-09-23T00:25:18.798Z,100.00
2022-09-23T00:27:54.636Z,100.00
2022-09-23T00:29:57.315Z,100.00
2022-09-23T00:32:08.376Z,100.00
2022-09-23T00:34:13.555Z,100.00
2022-09-23T00:36:52.659Z,100.00
2022-09-23T00:39:26.236Z,100.00
2022-09-23T00:41:39.852Z,100.00
2022-09-23T00:43:49.168Z,100.00
2022-09-23T00:45:51.536Z,100.00
2022-09-23T00:47:54.912Z,100.00
2022-09-23T00:50:17.715Z,100.00
2022-09-23T00:52:23.848Z,100.00
2022-09-23T00:54:27.907Z,100.00
2022-09-23T00:56:31.994Z,100.00
2022-09-23T00:58:39.386Z,100.00
2022-09-23T01:00:42.820Z,100.00
2022-09-23T01:02:44.936Z,100.00
2022-09-23T01:04:49.703Z,100.00
2022-09-23T01:06:51.896Z,100.00
2022-09-23T01:08:54.070Z,100.00
2022-09-23T01:11:20.843Z,100.00
2022-09-23T01:13:57.965Z,100.00
2022-09-23T01:16:15.084Z,100.00
2022-09-23T01:18:43.646Z,100.00
2022-09-23T01:21:21.526Z,100.00
2022-09-23T01:24:15.771Z,100.00
2022-09-23T01:26:36.041Z,100.00
2022-09-23T01:29:15.299Z,100.00
2022-09-23T01:31:37.560Z,100.00
2022-09-23T01:33:45.476Z,100.00
2022-09-23T01:36:19.284Z,100.00
2022-09-23T01:38:47.043Z,100.00
2022-09-23T01:40:55.028Z,100.00
2022-09-23T01:43:06.209Z,100.00
2022-09-23T01:45:32.177Z,100.00
2022-09-23T01:47:42.750Z,100.00
2022-09-23T01:50:29.627Z,100.00
2022-09-23T01:52:42.010Z,100.00
2022-09-23T01:54:55.647Z,100.00
2022-09-23T01:57:09.975Z,100.00
2022-09-23T01:59:18.542Z,100.00
2022-09-23T02:01:30.198Z,100.00
2022-09-23T02:03:59.883Z,100.00
2022-09-23T02:06:20.363Z,100.00
2022-09-23T02:08:32.057Z,100.00
2022-09-23T02:10:54.115Z,100.00
2022-09-23T02:13:10.113Z,100.00
2022-09-23T02:15:17.832Z,100.00
2022-09-23T02:17:31.552Z,100.00
2022-09-23T02:19:46.360Z,100.00
2022-09-23T02:21:56.133Z,100.00
2022-09-23T02:24:06.416Z,100.00
2022-09-23T02:26:33.882Z,100.00
2022-09-23T02:28:51.832Z,100.00
2022-09-23T02:31:07.827Z,100.00
2022-09-23T02:33:35.174Z,100.00
2022-09-23T02:35:51.801Z,100.00
2022-09-23T02:37:53.827Z,100.00
2022-09-23T02:40:07.866Z,100.00
2022-09-23T02:42:15.597Z,100.00
2022-09-23T02:44:20.461Z,100.00
2022-09-23T02:46:23.481Z,100.00
2022-09-23T02:48:48.468Z,100.00
2022-09-23T02:50:50.803Z,100.00
2022-09-23T02:52:53.273Z,100.00
2022-09-23T02:54:59.009Z,100.00
2022-09-23T02:57:06.872Z,100.00
2022-09-23T02:59:09.979Z,100.00
2022-09-23T03:01:22.868Z,100.00
2022-09-23T03:03:37.220Z,100.00
2022-09-23T03:05:50.615Z,100.00
2022-09-23T03:08:05.130Z,100.00
2022-09-23T03:10:16.694Z,100.00
2022-09-23T03:12:21.637Z,100.00
2022-09-23T03:14:40.417Z,100.00
2022-09-23T03:16:50.962Z,100.00
2022-09-23T03:19:22.179Z,100.00
2022-09-23T03:21:53.221Z,100.00
2022-09-23T03:23:59.830Z,100.00
2022-09-23T03:26:08.669Z,100.00
2022-09-23T03:28:12.090Z,100.00
2022-09-23T03:30:14.515Z,100.00
2022-09-23T03:32:19.867Z,100.00
2022-09-23T03:34:27.518Z,100.00
2022-09-23T03:36:53.988Z,100.00
2022-09-23T03:39:04.746Z,100.00
2022-09-23T03:41:11.024Z,100.00
2022-09-23T03:43:14.316Z,100.00
2022-09-23T03:45:21.174Z,100.00
2022-09-23T03:47:26.361Z,100.00
2022-09-23T03:49:33.554Z,100.00
2022-09-23T03:51:35.893Z,100.00
2022-09-23T03:53:39.738Z,100.00
2022-09-23T03:55:41.773Z,100.00
2022-09-23T03:57:45.296Z,100.00
2022-09-23T03:59:47.436Z,100.00
2022-09-23T04:01:50.400Z,100.00
2022-09-23T04:03:53.847Z,100.00
2022-09-23T04:05:56.091Z,100.00
2022-09-23T04:07:58.254Z,100.00
2022-09-23T04:10:00.503Z,100.00
2022-09-23T04:12:03.854Z,100.00
2022-09-23T04:14:05.987Z,100.00
2022-09-23T04:16:08.175Z,100.00
2022-09-23T04:18:10.461Z,100.00
2022-09-23T04:20:12.984Z,100.00
2022-09-23T04:22:15.108Z,100.00
2022-09-23T04:24:17.588Z,100.00
2022-09-23T04:26:19.686Z,100.00
2022-09-23T04:28:22.745Z,100.00
2022-09-23T04:30:24.918Z,100.00
2022-09-23T04:32:27.089Z,100.00
2022-09-23T04:34:29.240Z,100.00
2022-09-23T04:36:31.506Z,100.00
2022-09-23T04:38:33.725Z,100.00
2022-09-23T04:40:36.323Z,100.00
2022-09-23T04:42:38.676Z,100.00
2022-09-23T04:44:40.845Z,100.00
2022-09-23T04:46:49.738Z,99.61
2022-09-23T04:48:52.189Z,98.83
2022-09-23T04:50:54.282Z,98.45
2022-09-23T04:52:56.539Z,98.80
2022-09-23T04:54:58.592Z,96.89
2022-09-23T04:57:00.970Z,97.28
2022-09-23T04:59:03.066Z,96.06
2022-09-23T05:01:27.160Z,95.92
2022-09-23T05:03:30.299Z,94.46
2022-09-23T05:05:32.368Z,94.61
2022-09-23T05:07:35.579Z,93.88
2022-09-23T05:09:38.206Z,92.44
2022-09-23T05:11:40.527Z,91.97
2022-09-23T05:13:42.488Z,91.05
2022-09-23T05:15:44.535Z,91.78
2022-09-23T05:17:46.741Z,90.69
2022-09-23T05:19:48.873Z,89.92
2022-09-23T05:21:51.622Z,90.16
2022-09-23T05:23:56.840Z,90.33
2022-09-23T05:26:00.713Z,89.04
2022-09-23T05:28:02.942Z,87.45
2022-09-23T05:30:05.531Z,86.96
2022-09-23T05:32:08.121Z,86.38
2022-09-23T05:34:10.148Z,84.97
2022-09-23T05:36:13.456Z,85.06
2022-09-23T05:38:16.981Z,83.69
2022-09-23T05:40:19.187Z,83.72
2022-09-23T05:42:21.309Z,83.54
2022-09-23T05:44:23.477Z,81.23
2022-09-23T05:46:28.387Z,81.10
2022-09-23T05:48:35.294Z,79.63
2022-09-23T05:50:37.407Z,79.51
2022-09-23T05:52:39.587Z,79.60
2022-09-23T05:54:41.853Z,80.13
2022-09-23T05:56:46.857Z,79.31
2022-09-23T05:58:50.694Z,78.96
2022-09-23T06:00:53.289Z,78.89
2022-09-23T06:02:55.566Z,78.10
2022-09-23T06:04:57.999Z,77.16
2022-09-23T06:07:03.356Z,77.59
2022-09-23T06:09:08.376Z,77.19
2022-09-23T06:11:12.179Z,76.81
2022-09-23T06:13:16.147Z,76.49
2022-09-23T06:15:18.480Z,75.93
2022-09-23T06:17:20.722Z,76.09
2022-09-23T06:19:23.073Z,76.17
2022-09-23T06:21:25.272Z,77.08
2022-09-23T06:23:27.658Z,75.70
2022-09-23T06:25:30.525Z,73.20
2022-09-23T06:28:00.274Z,72.14
2022-09-23T06:30:02.688Z,71.10
2022-09-23T06:32:06.088Z,69.94
2022-09-23T06:34:13.684Z,68.46
2022-09-23T06:36:30.822Z,65.54
2022-09-23T06:38:40.408Z,63.16
2022-09-23T06:40:42.644Z,62.55
2022-09-23T06:45:06.111Z,59.22
2022-09-23T06:47:08.420Z,59.52
2022-09-23T06:49:13.128Z,59.26
2022-09-23T06:51:21.822Z,60.79
2022-09-23T06:53:24.161Z,61.14
2022-09-23T06:55:28.179Z,62.90
2022-09-23T06:57:51.288Z,64.99
2022-09-23T06:59:53.402Z,65.38
2022-09-23T07:02:02.138Z,64.74
2022-09-23T07:04:04.494Z,64.96
2022-09-23T07:06:09.485Z,63.69
2022-09-23T07:08:14.950Z,63.70
2022-09-23T07:10:17.255Z,64.27
2022-09-23T07:12:19.251Z,64.05
2022-09-23T07:14:24.192Z,64.95
2022-09-23T07:16:28.960Z,65.27
2022-09-23T07:18:36.680Z,65.78
2022-09-23T07:20:41.752Z,65.48
2022-09-23T07:23:18.028Z,64.59
2022-09-23T07:25:26.311Z,64.37
2022-09-23T07:27:34.100Z,63.53
2022-09-23T07:29:49.599Z,63.78
2022-09-23T07:31:52.209Z,63.55
2022-09-23T07:33:57.598Z,62.20
2022-09-23T07:36:00.191Z,61.20
2022-09-23T07:38:02.578Z,62.20
2022-09-23T07:40:05.412Z,62.27
2022-09-23T07:42:08.030Z,61.84
2022-09-23T07:44:13.928Z,62.26
2022-09-23T07:46:56.312Z,63.23
2022-09-23T07:49:01.368Z,64.17
2022-09-23T07:51:34.718Z,65.06
2022-09-23T07:53:56.875Z,65.77
2022-09-23T07:56:05.681Z,66.64
2022-09-23T07:58:09.054Z,66.91
2022-09-23T08:00:30.453Z,66.40
2022-09-23T08:02:32.566Z,66.96
2022-09-23T08:04:36.177Z,68.04
2022-09-23T08:06:46.504Z,68.97
2022-09-23T08:08:53.332Z,68.39
2022-09-23T08:11:04.659Z,68.13
2022-09-23T08:13:07.008Z,67.23
2022-09-23T08:15:09.197Z,66.32
2022-09-23T08:19:32.120Z,66.34
2022-09-23T08:21:39.311Z,66.62
2022-09-23T08:23:41.699Z,67.19
2022-09-23T08:25:46.943Z,67.46
2022-09-23T08:27:50.756Z,67.43
2022-09-23T08:29:52.920Z,67.93
2022-09-23T08:31:55.849Z,67.68
2022-09-23T08:34:00.134Z,68.29
2022-09-23T08:36:03.747Z,67.86
2022-09-23T08:38:06.527Z,68.12
2022-09-23T08:40:09.716Z,67.62
2022-09-23T08:42:31.953Z,67.52
2022-09-23T08:44:55.321Z,68.71
2022-09-23T08:47:00.420Z,69.58
2022-09-23T08:49:02.834Z,71.22
2022-09-23T08:51:08.499Z,73.01
2022-09-23T08:53:32.895Z,74.57
2022-09-23T08:55:42.205Z,74.93
2022-09-23T08:58:23.504Z,74.97
2022-09-23T09:00:23.852Z,75.81
2022-09-23T09:02:31.508Z,75.53
2022-09-23T09:04:37.929Z,74.27
2022-09-23T09:06:53.567Z,72.20
2022-09-23T09:09:01.044Z,71.17
2022-09-23T09:11:04.034Z,70.38
2022-09-23T09:13:12.471Z,69.58
2022-09-23T09:15:26.864Z,68.53
2022-09-23T09:17:45.991Z,68.51
2022-09-23T09:20:16.943Z,68.93
2022-09-23T09:22:48.539Z,67.88
2022-09-23T09:24:56.608Z,67.51
2022-09-23T09:27:11.959Z,67.66
2022-09-23T09:29:39.317Z,68.73
2022-09-23T09:31:47.899Z,68.46
2022-09-23T09:34:06.442Z,67.92
2022-09-23T09:36:20.999Z,66.43
2022-09-23T09:38:23.623Z,66.30
2022-09-23T09:40:25.826Z,67.25
2022-09-23T09:42:37.297Z,67.75
2022-09-23T09:44:42.359Z,67.86
2022-09-23T09:47:09.159Z,67.34
2022-09-23T09:49:23.446Z,68.26
2022-09-23T09:51:29.815Z,66.83
2022-09-23T09:53:35.936Z,66.92
2022-09-23T09:55:38.696Z,65.41
2022-09-23T09:57:55.167Z,64.26
2022-09-23T09:59:58.963Z,64.18
2022-09-23T10:02:37.047Z,63.94
2022-09-23T10:04:39.825Z,63.67
2022-09-23T10:06:42.079Z,63.45
2022-09-23T10:08:50.349Z,62.96
2022-09-23T10:10:58.766Z,62.54
2022-09-23T10:13:16.214Z,61.88
2022-09-23T10:15:27.517Z,62.00
2022-09-23T10:17:38.835Z,62.07
2022-09-23T10:19:47.132Z,62.66
2022-09-23T10:22:00.144Z,62.18
2022-09-23T10:24:05.817Z,61.91
2022-09-23T10:26:09.060Z,62.24
2022-09-23T10:28:41.306Z,62.04
2022-09-23T10:31:05.483Z,62.32
2022-09-23T10:33:27.968Z,63.99
2022-09-23T10:35:34.528Z,64.33
2022-09-23T10:37:42.241Z,64.84
2022-09-23T10:40:06.516Z,64.72
2022-09-23T10:42:46.883Z,62.36
2022-09-23T10:45:20.053Z,62.70
2022-09-23T10:47:35.099Z,60.21
2022-09-23T10:49:44.017Z,59.16
2022-09-23T10:51:49.140Z,58.77
2022-09-23T10:54:02.802Z,60.10
2022-09-23T10:56:11.129Z,59.88
2022-09-23T10:58:13.157Z,59.37
2022-09-23T11:00:15.313Z,57.96
2022-09-23T11:02:21.399Z,58.08
2022-09-23T11:04:52.933Z,57.35
2022-09-23T11:07:07.448Z,56.63
2022-09-23T11:09:28.266Z,56.52
2022-09-23T11:11:58.757Z,56.59
2022-09-23T11:14:04.812Z,56.76
2022-09-23T11:16:43.276Z,56.35
2022-09-23T11:18:59.870Z,56.73
2022-09-23T11:21:26.662Z,57.36
2022-09-23T11:24:06.362Z,58.23
2022-09-23T11:26:19.823Z,59.34
2022-09-23T11:28:37.168Z,61.01
2022-09-23T11:31:17.465Z,61.86
2022-09-23T11:33:37.894Z,61.32
2022-09-23T11:35:50.500Z,61.33
2022-09-23T11:38:00.881Z,61.23
2022-09-23T11:40:12.455Z,61.68
2022-09-23T11:42:21.632Z,62.88
2022-09-23T11:44:28.699Z,62.96
2022-09-23T11:46:35.993Z,63.22
2022-09-23T11:48:44.858Z,63.54
2022-09-23T11:50:57.509Z,64.56
2022-09-23T11:53:31.768Z,64.88
2022-09-23T11:55:54.655Z,64.43
2022-09-23T11:58:13.002Z,63.45
2022-09-23T12:00:24.355Z,62.42
2022-09-23T12:02:59.595Z,61.82
2022-09-23T12:05:14.131Z,62.08
2022-09-23T12:07:28.795Z,61.58
2022-09-23T12:10:04.108Z,61.61
2022-09-23T12:12:29.499Z,62.44
2022-09-23T12:14:49.978Z,62.84
2022-09-23T12:17:15.052Z,63.76
2022-09-23T12:19:18.999Z,63.49
2022-09-23T12:21:48.649Z,63.29
2022-09-23T12:24:20.455Z,63.01
2022-09-23T12:26:25.668Z,62.89
2022-09-23T12:28:37.867Z,62.49
2022-09-23T12:30:42.350Z,63.13
2022-09-23T12:32:45.412Z,62.95
2022-09-23T12:34:54.679Z,62.64
2022-09-23T12:37:06.339Z,62.08
2022-09-23T12:39:15.568Z,61.41
2022-09-23T12:41:24.160Z,60.94
2022-09-23T12:43:35.708Z,61.18
2022-09-23T12:45:51.022Z,61.49
2022-09-23T12:47:54.048Z,61.41
2022-09-23T12:50:13.316Z,61.34
2022-09-23T12:52:19.697Z,61.50
2022-09-23T12:54:28.321Z,61.36
2022-09-23T12:56:36.627Z,60.66
2022-09-23T12:58:57.107Z,59.54
2022-09-23T13:01:19.910Z,59.46
2022-09-23T13:03:49.526Z,60.48
2022-09-23T13:06:17.302Z,60.41
2022-09-23T13:08:25.046Z,59.75
2022-09-23T13:10:29.780Z,60.22
2022-09-23T13:12:40.489Z,60.24
2022-09-23T13:14:46.185Z,59.61
2022-09-23T13:16:52.362Z,59.32
2022-09-23T13:19:02.817Z,59.30
2022-09-23T13:21:17.983Z,58.84
2022-09-23T13:23:26.627Z,57.78
2022-09-23T13:25:33.571Z,58.75
2022-09-23T13:27:36.497Z,58.32
2022-09-23T13:30:19.365Z,58.26
2022-09-23T13:32:32.024Z,58.60
2022-09-23T13:34:36.264Z,58.36
2022-09-23T13:36:49.504Z,58.76
2022-09-23T13:38:51.940Z,60.19
2022-09-23T13:40:57.154Z,59.74
2022-09-23T13:43:03.345Z,59.87
2022-09-23T13:45:06.892Z,59.79
2022-09-23T13:47:18.198Z,59.42
2022-09-23T13:49:25.240Z,59.86
2022-09-23T13:51:33.275Z,60.57
2022-09-23T13:53:35.485Z,61.01
2022-09-23T13:55:39.289Z,61.88
2022-09-23T13:57:43.341Z,62.37
2022-09-23T13:59:45.563Z,63.21
2022-09-23T14:01:47.837Z,63.87
2022-09-23T14:03:51.571Z,64.41
2022-09-23T14:06:05.052Z,65.14
2022-09-23T14:08:08.189Z,64.81
2022-09-23T14:10:19.198Z,65.41
2022-09-23T14:12:26.384Z,64.94
2022-09-23T14:14:33.782Z,65.15
2022-09-23T14:16:39.734Z,65.42
2022-09-23T14:18:47.273Z,66.26
2022-09-23T14:20:51.856Z,66.29
2022-09-23T14:23:04.804Z,66.97
2022-09-23T14:25:16.815Z,66.77
2022-09-23T14:27:28.606Z,66.71
2022-09-23T14:29:33.872Z,67.27
2022-09-23T14:31:36.105Z,67.37
2022-09-23T14:33:41.820Z,67.50
2022-09-23T14:35:51.579Z,67.75
2022-09-23T14:38:16.334Z,68.32
2022-09-23T14:40:20.681Z,68.90
2022-09-23T14:44:42.413Z,69.48
2022-09-23T14:46:56.975Z,69.77
2022-09-23T14:48:59.055Z,70.05
2022-09-23T14:51:04.025Z,70.24
2022-09-23T14:53:24.230Z,69.56
2022-09-23T14:55:29.051Z,69.76
2022-09-23T14:57:32.087Z,70.40
2022-09-23T14:59:36.705Z,70.54
2022-09-23T15:01:39.383Z,70.97
2022-09-23T15:03:50.096Z,70.51
2022-09-23T15:05:58.445Z,70.87
2022-09-23T15:08:12.118Z,71.12
2022-09-23T15:10:27.145Z,71.33
2022-09-23T15:12:30.498Z,71.74
2022-09-23T15:14:42.310Z,71.89
2022-09-23T15:16:49.582Z,72.94
2022-09-23T15:18:57.852Z,72.99
2022-09-23T15:21:31.676Z,73.16
2022-09-23T15:24:15.813Z,73.36
2022-09-23T15:26:48.323Z,73.25
2022-09-23T15:28:56.308Z,73.54
2022-09-23T15:30:58.622Z,73.66
2022-09-23T15:33:00.675Z,74.13
2022-09-23T15:35:02.917Z,74.19
2022-09-23T15:37:08.266Z,74.51
2022-09-23T15:39:12.381Z,74.18
2022-09-23T15:41:18.070Z,74.47
2022-09-23T15:43:32.723Z,74.69
2022-09-23T15:45:40.375Z,74.61
2022-09-23T15:47:43.201Z,75.10
2022-09-23T15:49:52.066Z,74.78
2022-09-23T15:52:15.491Z,76.25
2022-09-23T15:56:38.202Z,75.85
2022-09-23T15:58:58.673Z,76.02
2022-09-23T16:01:01.851Z,76.18
2022-09-23T16:03:06.767Z,77.22
2022-09-23T16:05:18.613Z,77.45
2022-09-23T16:07:21.282Z,78.31
2022-09-23T16:09:56.560Z,78.25
2022-09-23T16:12:09.481Z,77.49
2022-09-23T16:14:30.012Z,77.76
2022-09-23T16:16:32.963Z,77.74
2022-09-23T16:18:39.411Z,78.68
2022-09-23T16:20:56.566Z,79.05
2022-09-23T16:23:05.323Z,79.27
2022-09-23T16:25:31.509Z,79.58
2022-09-23T16:27:34.211Z,79.64
2022-09-23T16:29:37.011Z,79.86
2022-09-23T16:31:39.566Z,80.24
2022-09-23T16:33:43.283Z,79.94
2022-09-23T16:35:45.813Z,79.88
2022-09-23T16:37:48.113Z,79.74
2022-09-23T16:39:50.413Z,79.69
2022-09-23T16:42:13.608Z,80.17
2022-09-23T16:44:19.505Z,80.54
2022-09-23T16:46:22.772Z,80.15
2022-09-23T16:48:30.957Z,80.36
2022-09-23T16:50:42.803Z,80.06
2022-09-23T16:52:56.916Z,80.15
2022-09-23T16:54:59.265Z,80.30
2022-09-23T16:57:02.069Z,80.33
2022-09-23T16:59:04.285Z,81.23
2022-09-23T17:01:38.358Z,81.49
2022-09-23T17:03:41.046Z,81.77
2022-09-23T17:05:46.582Z,81.75
2022-09-23T17:07:49.125Z,81.85
2022-09-23T17:09:51.402Z,81.82
2022-09-23T17:11:58.844Z,82.05
2022-09-23T17:14:01.089Z,82.84
2022-09-23T17:16:03.463Z,83.14
2022-09-23T17:18:08.165Z,83.26
2022-09-23T17:20:10.319Z,83.01
2022-09-23T17:22:12.532Z,83.31
2022-09-23T17:24:15.115Z,83.26
2022-09-23T17:26:19.219Z,82.96
2022-09-23T17:28:26.134Z,83.18
2022-09-23T17:30:29.983Z,83.48
2022-09-23T17:32:32.093Z,83.79
2022-09-23T17:36:37.039Z,83.96
2022-09-23T17:38:41.771Z,83.76
2022-09-23T17:40:55.251Z,83.58
2022-09-23T17:42:57.361Z,83.76
2022-09-23T17:44:59.663Z,83.63
2022-09-23T17:47:04.994Z,83.55
2022-09-23T17:49:08.565Z,83.37
2022-09-23T17:51:17.023Z,83.63
2022-09-23T17:53:20.431Z,84.21
2022-09-23T17:55:22.647Z,84.15
2022-09-23T17:57:24.836Z,84.64
2022-09-23T17:59:27.003Z,85.10
2022-09-23T18:01:29.350Z,85.40
2022-09-23T18:03:33.638Z,85.57
2022-09-23T18:05:35.747Z,85.55
2022-09-23T18:07:37.811Z,85.70
2022-09-23T18:09:50.337Z,86.08
2022-09-23T18:11:52.601Z,86.40
2022-09-23T18:13:59.701Z,86.08
2022-09-23T18:16:03.023Z,86.25
2022-09-23T18:18:06.223Z,86.15
2022-09-23T18:20:14.565Z,85.81
2022-09-23T18:22:16.977Z,85.71
2022-09-23T18:24:35.765Z,85.73
2022-09-23T18:26:38.620Z,85.75
2022-09-23T18:28:41.013Z,85.81
2022-09-23T18:30:55.095Z,85.87
2022-09-23T18:32:58.455Z,86.00
2022-09-23T18:35:00.646Z,86.17
2022-09-23T18:37:02.871Z,86.30
2022-09-23T18:39:05.846Z,86.33
2022-09-23T18:41:09.482Z,87.00
2022-09-23T18:43:11.723Z,86.51
2022-09-23T18:45:17.075Z,87.31
2022-09-23T18:47:39.093Z,87.23
2022-09-23T18:49:59.842Z,87.38
2022-09-23T18:52:02.359Z,87.21
2022-09-23T18:54:07.194Z,87.03
2022-09-23T18:56:12.133Z,87.06
2022-09-23T18:58:14.518Z,87.24
2022-09-23T19:00:16.857Z,86.70
2022-09-23T19:02:19.143Z,86.83
2022-09-23T19:04:23.498Z,86.80
2022-09-23T19:06:26.105Z,87.19
2022-09-23T19:08:28.676Z,88.08
2022-09-23T19:10:30.896Z,87.96
2022-09-23T19:12:33.131Z,87.96
2022-09-23T19:14:35.271Z,88.39
2022-09-23T19:16:37.955Z,88.04
2022-09-23T19:18:42.082Z,88.03
2022-09-23T19:20:52.111Z,87.60
2022-09-23T19:22:54.722Z,87.75
2022-09-23T19:24:56.863Z,87.61
2022-09-23T19:26:59.123Z,88.19
2022-09-23T19:29:05.606Z,88.24
2022-09-23T19:31:12.625Z,88.54
2022-09-23T19:33:17.918Z,88.52
2022-09-23T19:35:20.144Z,88.79
2022-09-23T19:37:22.672Z,88.30
2022-09-23T19:39:31.350Z,88.44
2022-09-23T19:41:35.633Z,88.18
2022-09-23T19:43:41.018Z,88.15
2022-09-23T19:45:44.591Z,88.14
2022-09-23T19:48:09.862Z,88.12
2022-09-23T19:50:30.448Z,88.05
2022-09-23T19:52:32.517Z,87.84
2022-09-23T19:54:40.260Z,87.83
2022-09-23T19:56:42.410Z,87.82
2022-09-23T19:58:45.563Z,88.22
2022-09-23T20:00:49.450Z,88.78
2022-09-23T20:02:51.737Z,88.40
2022-09-23T20:04:56.916Z,88.40
2022-09-23T20:07:01.532Z,89.23
2022-09-23T20:09:04.062Z,88.67
2022-09-23T20:11:27.583Z,89.25
2022-09-23T20:13:31.542Z,89.41
2022-09-23T20:15:33.709Z,89.84
2022-09-23T20:17:36.112Z,89.61
2022-09-23T20:19:41.483Z,89.47
2022-09-23T20:22:12.614Z,89.79
2022-09-23T20:24:17.068Z,89.97
2022-09-23T20:26:37.539Z,89.97
2022-09-23T20:28:39.595Z,90.10
2022-09-23T20:30:43.977Z,90.01
2022-09-23T20:32:49.406Z,90.51
2022-09-23T20:34:57.250Z,90.66
2022-09-23T20:37:02.029Z,90.60
2022-09-23T20:41:31.518Z,90.67
2022-09-23T20:43:37.841Z,90.72
2022-09-23T20:45:40.072Z,91.05
2022-09-23T20:47:42.121Z,91.10
2022-09-23T20:49:50.138Z,90.84
2022-09-23T20:51:52.198Z,90.70
2022-09-23T20:53:54.369Z,90.57
2022-09-23T20:55:58.390Z,90.74
2022-09-23T20:58:04.001Z,90.47
2022-09-23T21:00:09.444Z,90.66
2022-09-23T21:02:11.805Z,90.72
2022-09-23T21:04:13.927Z,90.70
2022-09-23T21:06:19.089Z,90.46
2022-09-23T21:08:21.600Z,90.30
2022-09-23T21:10:24.441Z,90.53
2022-09-23T21:12:26.470Z,91.33
2022-09-23T21:14:28.641Z,90.97
2022-09-23T21:16:31.061Z,90.95
2022-09-23T21:18:33.174Z,90.97
2022-09-23T21:20:35.309Z,91.01
2022-09-23T21:22:37.487Z,90.56
2022-09-23T21:25:16.136Z,90.64
2022-09-23T21:27:04.138Z,90.89
2022-09-23T21:29:07.010Z,90.66
2022-09-23T21:31:22.879Z,90.84
2022-09-23T21:33:25.364Z,90.96
2022-09-23T21:35:27.447Z,90.94
2022-09-23T21:37:29.619Z,90.69
2022-09-23T21:40:26.267Z,90.98
2022-09-23T21:42:29.432Z,91.51
2022-09-23T21:44:33.630Z,91.56
2022-09-23T21:46:36.532Z,91.46
2022-09-23T21:48:41.483Z,91.65
2022-09-23T21:51:15.839Z,91.97
2022-09-23T21:53:18.576Z,92.18
2022-09-23T21:55:41.496Z,92.81
2022-09-23T21:57:44.328Z,93.13
2022-09-23T21:59:57.038Z,93.30
2022-09-23T22:02:00.101Z,94.38
2022-09-23T22:04:08.531Z,94.26
2022-09-23T22:06:27.946Z,95.20
2022-09-23T22:08:34.923Z,95.32
2022-09-23T22:10:37.749Z,96.36
2022-09-23T22:12:39.928Z,96.41
2022-09-23T22:14:42.966Z,96.71
2022-09-23T22:16:45.523Z,97.60
2022-09-23T22:18:51.818Z,98.13
2022-09-23T22:20:56.406Z,98.18
2022-09-23T22:22:58.528Z,98.71
2022-09-23T22:25:00.719Z,98.38
2022-09-23T22:27:02.728Z,99.26
2022-09-23T22:29:27.088Z,98.82
2022-09-23T22:31:47.857Z,99.36
2022-09-23T22:33:50.683Z,100.00
2022-09-23T22:36:01.465Z,100.00
2022-09-23T22:38:04.794Z,100.00
2022-09-23T22:40:10.698Z,100.00
2022-09-23T22:42:13.448Z,100.00
2022-09-23T22:44:21.600Z,100.00
2022-09-23T22:46:34.819Z,100.00
2022-09-23T22:49:08.406Z,100.00
2022-09-23T22:51:17.216Z,100.00
2022-09-23T22:53:19.356Z,100.00
2022-09-23T22:55:33.715Z,100.00
2022-09-23T22:57:36.785Z,100.00
2022-09-23T23:00:00.485Z,100.00
2022-09-23T23:04:50.555Z,100.00
2022-09-23T23:06:52.617Z,100.00
2022-09-23T23:08:58.756Z,100.00
2022-09-23T23:11:10.931Z,100.00
2022-09-23T23:13:16.533Z,100.00
2022-09-23T23:15:21.294Z,100.00
2022-09-23T23:17:23.476Z,100.00
2022-09-23T23:19:26.107Z,100.00
2022-09-23T23:21:28.504Z,100.00
2022-09-23T23:23:30.392Z,100.00
2022-09-23T23:25:32.562Z,100.00
2022-09-23T23:27:34.864Z,100.00
2022-09-23T23:29:36.985Z,100.00
2022-09-23T23:31:39.437Z,100.00
2022-09-23T23:33:42.368Z,100.00
2022-09-23T23:35:50.774Z,100.00
2022-09-23T23:37:52.854Z,100.00
2022-09-23T23:39:55.051Z,100.00
2022-09-23T23:42:15.961Z,100.00
2022-09-23T23:44:18.252Z,100.00
2022-09-23T23:46:21.463Z,100.00
2022-09-23T23:48:29.678Z,100.00
2022-09-23T23:50:53.762Z,100.00
2022-09-23T23:53:01.707Z,100.00
2022-09-23T23:55:07.237Z,100.00
2022-09-23T23:57:24.787Z,100.00
2022-09-23T23:59:28.476Z,100.00
